LRCV

Details ICAO LRCV (CRA)
Name CRAIOVA
Region Romania
Timezone Europe/Bucharest (UTC+3.0)
Plans Departing 43
Arriving 39
Stats Elevation 626 ft / 191 m (AMSL)
Location 44.318152° 23.888541°
Runways 1
Magnetic Variation 5.264° E
Sunrise 2018-05-22 02:52:13 UTC / 2018-05-22 05:52:13 Local
Sunset 2018-05-22 17:52:51 UTC / 2018-05-22 20:52:51 Local
Advertisement - Login to hide

Runways

ID Width Length Bearing (true) Bearing (mag) Surface Threshold Offset Overrun Length
09 148 ft / 45 m 8,146 ft / 2,483 m 88.92° 83.66° Concrete 0 ft / 0 m 0 ft / 0 m
27 148 ft / 45 m 8,146 ft / 2,483 m 268.94° 263.68° Concrete 0 ft / 0 m 0 ft / 0 m

Map

Weather


0- 5 10 15 20 25 30 35+ Temperature / ° C

Clouds and Precipitation
Forecast for 2018-05-22 12:00 UTC. Updated 5 hours ago

Ground ~20,000 ft ~40,000 ft Winds

METAR

LRCV 221630Z AUTO 07006KT 9999 NCD 22/11 Q1018

TAF

Not found

Frequencies

Tower 124.30 MHz TWR
Approach 124.30 MHz APP
Warning: Do not use this data for real-world aviation or navigation. No guarantee of current accuracy is given.